createdAt,value
2019-05-22T00:03:19.462Z,42.7
2019-05-22T00:08:30.788Z,42.6
2019-05-22T00:19:05.615Z,42.5
2019-05-22T00:24:16.342Z,42.4
2019-05-22T00:29:27.871Z,42.7
2019-05-22T00:34:38.633Z,42.5
2019-05-22T00:39:49.649Z,41.9
2019-05-22T00:45:00.371Z,41.4
2019-05-22T00:50:11.375Z,41.9
2019-05-22T00:55:22.102Z,42.1
2019-05-22T01:00:35.319Z,42.2
2019-05-22T01:05:46.048Z,41.6
2019-05-22T01:10:56.782Z,40.9
2019-05-22T01:16:07.507Z,42
2019-05-22T01:21:18.514Z,42.1
2019-05-22T01:26:29.522Z,41.4
2019-05-22T01:31:40.366Z,42
2019-05-22T01:36:51.062Z,42.7
2019-05-22T01:42:02.165Z,41.9
2019-05-22T01:52:48.650Z,41.9
2019-05-22T02:03:23.166Z,41.4
2019-05-22T02:08:33.900Z,40.8
2019-05-22T02:13:44.905Z,41.5
2019-05-22T02:18:55.913Z,40.9
2019-05-22T02:24:06.642Z,40.8
2019-05-22T02:29:17.379Z,40.5
2019-05-22T02:34:28.110Z,41
2019-05-22T02:39:38.842Z,40.7
2019-05-22T02:44:49.861Z,41.5
2019-05-22T02:50:00.651Z,41.8
2019-05-22T02:55:11.372Z,40.3
2019-05-22T03:00:22.383Z,41.2
2019-05-22T03:05:33.118Z,41.5
2019-05-22T03:10:44.421Z,40.8
2019-05-22T03:15:55.714Z,40.7
2019-05-22T03:21:07.277Z,40.6
2019-05-22T03:26:18.290Z,40.7
2019-05-22T03:31:29.032Z,40.1
2019-05-22T03:36:40.040Z,41
2019-05-22T03:41:50.790Z,40.9
2019-05-22T03:47:01.508Z,41.3
2019-05-22T03:52:12.233Z,42.2
2019-05-22T03:57:23.247Z,41.9
2019-05-22T04:02:33.975Z,42.5
2019-05-22T04:07:44.707Z,43
2019-05-22T04:12:56.015Z,42.3
2019-05-22T04:18:07.286Z,42.5
2019-05-22T04:23:18.576Z,42.9
2019-05-22T04:28:29.590Z,42.3
2019-05-22T04:33:40.606Z,38
2019-05-22T04:38:51.895Z,38.4
2019-05-22T04:44:02.899Z,37.6
2019-05-22T04:49:13.901Z,37.6
2019-05-22T04:54:24.927Z,38.1
2019-05-22T04:59:35.928Z,37.9
2019-05-22T05:04:47.216Z,38.7
2019-05-22T05:09:57.946Z,40.6
2019-05-22T05:15:09.232Z,40.5
2019-05-22T05:20:23.726Z,41.7
2019-05-22T05:25:35.003Z,41.6
2019-05-22T05:30:46.587Z,41.7
2019-05-22T05:35:57.881Z,42.7
2019-05-22T05:41:09.154Z,42.2
2019-05-22T05:46:20.458Z,42.7
2019-05-22T05:51:31.188Z,42
2019-05-22T05:56:42.207Z,42.1
2019-05-22T06:01:53.495Z,42.2
2019-05-22T06:07:04.550Z,42.2
2019-05-22T06:12:15.849Z,42.1
2019-05-22T06:17:26.595Z,42.8
2019-05-22T06:22:38.390Z,42.1
2019-05-22T06:27:49.670Z,42.7
2019-05-22T06:33:01.237Z,42
2019-05-22T06:38:12.240Z,41.9
2019-05-22T06:43:23.699Z,41.9
2019-05-22T06:48:38.247Z,41.8
2019-05-22T06:53:49.617Z,41.1
2019-05-22T06:59:00.872Z,42.5
2019-05-22T07:04:12.431Z,42.7
2019-05-22T07:09:23.723Z,41.9
2019-05-22T07:14:34.741Z,42.5
2019-05-22T07:19:45.469Z,42.9
2019-05-22T07:24:56.478Z,43
2019-05-22T07:30:07.639Z,43
2019-05-22T07:35:18.733Z,42.9
2019-05-22T07:40:29.733Z,42.8
2019-05-22T07:45:41.231Z,42.4
2019-05-22T07:50:52.020Z,43
2019-05-22T07:56:02.744Z,42.9
2019-05-22T08:01:14.005Z,43.1
2019-05-22T08:06:25.010Z,42.9
2019-05-22T08:11:35.738Z,42.1
2019-05-22T08:16:46.746Z,42.5
2019-05-22T08:22:08.241Z,42.5
2019-05-22T08:27:19.215Z,43.1
2019-05-22T08:32:31.591Z,42.8
2019-05-22T08:37:42.740Z,43
2019-05-22T08:42:53.755Z,42.6
2019-05-22T08:48:07.989Z,42.3
2019-05-22T08:53:18.960Z,42.6
2019-05-22T08:58:30.315Z,43.2
2019-05-22T09:03:41.876Z,42.5
2019-05-22T09:08:53.466Z,43.1
2019-05-22T09:14:05.026Z,42.5
2019-05-22T09:19:16.400Z,43.2
2019-05-22T09:24:27.930Z,42.4
2019-05-22T09:29:39.480Z,42.2
2019-05-22T09:34:50.793Z,42.1
2019-05-22T09:40:02.404Z,42
2019-05-22T09:45:13.946Z,42.7
2019-05-22T09:50:24.943Z,42
2019-05-22T09:55:35.949Z,41.9
2019-05-22T10:00:47.246Z,41.9
2019-05-22T10:05:59.025Z,41.7
2019-05-22T10:11:10.445Z,42.2
2019-05-22T10:16:21.173Z,42.5
2019-05-22T10:21:32.181Z,42.2
2019-05-22T10:26:42.905Z,41.4
2019-05-22T10:31:54.194Z,42
2019-05-22T10:37:05.480Z,41.1
2019-05-22T10:42:16.885Z,41.2
2019-05-22T10:47:28.165Z,41.2
2019-05-22T10:52:39.451Z,40.7
2019-05-22T10:57:51.102Z,41.3
2019-05-22T11:03:02.706Z,41.4
2019-05-22T11:08:13.427Z,40.6
2019-05-22T11:13:24.448Z,40.6
2019-05-22T11:18:35.468Z,40.6
2019-05-22T11:23:53.820Z,40.7
2019-05-22T11:29:05.091Z,40.4
2019-05-22T11:34:16.664Z,41.2
2019-05-22T11:39:45.258Z,41
2019-05-22T11:44:56.582Z,41
2019-05-22T11:50:10.909Z,40.4
2019-05-22T11:55:21.871Z,40.9
2019-05-22T12:00:32.599Z,40.1
2019-05-22T12:05:44.169Z,40.3
2019-05-22T12:10:55.449Z,40.2
2019-05-22T12:16:06.461Z,40.3
2019-05-22T12:21:17.741Z,40.3
2019-05-22T12:26:28.473Z,41
2019-05-22T12:31:42.667Z,40.2
2019-05-22T12:36:55.534Z,40.3
2019-05-22T12:42:07.979Z,40.3
2019-05-22T12:47:19.273Z,40
2019-05-22T12:52:30.274Z,40.2
2019-05-22T12:57:43.737Z,40
2019-05-22T13:02:55.036Z,40
2019-05-22T13:08:06.563Z,40.8
2019-05-22T13:13:17.846Z,40
2019-05-22T13:18:29.364Z,40.8
2019-05-22T13:23:44.040Z,40.2
2019-05-22T13:28:55.930Z,41
2019-05-22T13:34:07.203Z,40.4
2019-05-22T13:39:18.211Z,40.8
2019-05-22T13:44:29.694Z,40.5
2019-05-22T13:49:41.472Z,40.2
2019-05-22T13:54:53.034Z,40
2019-05-22T14:00:08.548Z,40.2
2019-05-22T14:05:20.608Z,40.4
2019-05-22T14:10:31.335Z,40.5
2019-05-22T14:15:57.970Z,40.6
2019-05-22T14:21:09.008Z,40.3
2019-05-22T14:26:19.752Z,40.1
2019-05-22T14:31:31.143Z,41.2
2019-05-22T14:36:42.129Z,40.4
2019-05-22T14:41:52.869Z,41.2
2019-05-22T14:47:17.232Z,41.2
2019-05-22T14:52:28.195Z,40.3
2019-05-22T14:57:39.224Z,41.2
2019-05-22T15:02:59.753Z,41
2019-05-22T15:08:10.905Z,41
2019-05-22T15:13:21.903Z,40.3
2019-05-22T15:18:32.904Z,40.5
2019-05-22T15:23:43.916Z,40.5
2019-05-22T15:28:55.204Z,40.4
2019-05-22T15:34:06.771Z,41.3
2019-05-22T15:39:17.773Z,40.4
2019-05-22T15:44:29.066Z,41.1
2019-05-22T15:49:40.362Z,40.4
2019-05-22T15:54:51.551Z,40.6
2019-05-22T16:00:05.788Z,40.8
2019-05-22T16:05:17.619Z,40.4
2019-05-22T16:10:29.020Z,40.9
2019-05-22T16:15:40.551Z,41.3
2019-05-22T16:20:52.116Z,40.5
2019-05-22T16:26:03.970Z,41
2019-05-22T16:31:15.259Z,40.3
2019-05-22T16:36:26.267Z,40.4
2019-05-22T16:41:37.549Z,40.9
2019-05-22T16:46:48.844Z,41
2019-05-22T16:51:59.860Z,40.1
2019-05-22T16:57:11.434Z,41
2019-05-22T17:02:22.703Z,40.5
2019-05-22T17:07:33.995Z,40
2019-05-22T17:12:45.018Z,40.2
2019-05-22T17:17:56.595Z,39.9
2019-05-22T17:23:08.153Z,40.6
2019-05-22T17:28:19.788Z,39.9
2019-05-22T17:33:30.785Z,40.5
2019-05-22T17:38:41.785Z,40.3
2019-05-22T17:43:53.088Z,40
2019-05-22T17:49:04.099Z,40
2019-05-22T17:54:15.113Z,40.8
2019-05-22T17:59:26.422Z,40.3
2019-05-22T18:04:37.144Z,40.5
2019-05-22T18:09:48.441Z,41.2
2019-05-22T18:15:02.568Z,41.3
2019-05-22T18:20:13.862Z,40.6
2019-05-22T18:25:24.861Z,41
2019-05-22T18:30:36.143Z,41.4
2019-05-22T18:35:47.697Z,41.3
2019-05-22T18:40:59.294Z,41.3
2019-05-22T18:46:10.020Z,41.2
2019-05-22T18:51:21.028Z,40.2
2019-05-22T18:56:31.754Z,40.4
2019-05-22T19:01:43.030Z,41.2
2019-05-22T19:06:56.934Z,41
2019-05-22T19:12:09.556Z,40.1
2019-05-22T19:17:28.468Z,40
2019-05-22T19:22:39.435Z,40.5
2019-05-22T19:27:50.154Z,40.4
2019-05-22T19:33:01.721Z,41.2
2019-05-22T19:38:12.915Z,41.4
2019-05-22T19:43:23.996Z,40.1
2019-05-22T19:48:35.620Z,41.1
2019-05-22T19:53:46.344Z,41.9
2019-05-22T19:58:57.074Z,41.4
2019-05-22T20:04:08.377Z,41.8
2019-05-22T20:09:19.434Z,41.5
2019-05-22T20:14:31.482Z,42.5
2019-05-22T20:19:42.214Z,41.3
2019-05-22T20:24:54.824Z,41.9
2019-05-22T20:30:06.669Z,43
2019-05-22T20:35:21.010Z,43
2019-05-22T20:40:32.564Z,43.4
2019-05-22T20:46:25.319Z,43.5
2019-05-22T20:51:36.307Z,43.4
2019-05-22T20:56:47.311Z,43.4
2019-05-22T21:01:58.037Z,42.5
2019-05-22T21:07:16.900Z,43.4
2019-05-22T21:12:28.140Z,42.7
2019-05-22T21:17:39.430Z,42.7
2019-05-22T21:22:50.183Z,43.5
2019-05-22T21:28:01.469Z,43.6
2019-05-22T21:33:12.462Z,43.6
2019-05-22T21:38:23.470Z,43.4
2019-05-22T21:43:34.470Z,43.8
2019-05-22T21:48:45.200Z,43.7
2019-05-22T21:53:55.919Z,43.3
2019-05-22T21:59:07.235Z,43.6
2019-05-22T22:04:18.488Z,43.4
2019-05-22T22:09:29.485Z,43.6
2019-05-22T22:14:40.210Z,44.2
2019-05-22T22:19:51.230Z,44.1
2019-05-22T22:25:01.947Z,43.7
2019-05-22T22:30:12.657Z,44.2
2019-05-22T22:35:23.381Z,44.2
2019-05-22T22:40:34.663Z,44.5
2019-05-22T22:45:45.394Z,42.9
2019-05-22T22:50:56.667Z,43.8
2019-05-22T22:56:08.230Z,43.4
2019-05-22T23:01:19.514Z,43.9
2019-05-22T23:06:30.800Z,43.2
2019-05-22T23:11:42.093Z,43.2
2019-05-22T23:16:53.084Z,44.2
2019-05-22T23:22:04.161Z,44.3
2019-05-22T23:27:15.163Z,43.7
2019-05-22T23:32:26.171Z,43.4
2019-05-22T23:37:37.173Z,43.5
2019-05-22T23:42:48.730Z,44.3
2019-05-22T23:48:00.014Z,43.7
2019-05-22T23:53:10.738Z,44.5
2019-05-22T23:58:21.458Z,44.2
